Flight Track Log - Related Links

Times and Time Zones

All times are in EDT time to prevent confusion due to time zone crossing. See the FLG4208 flight status page for this flight to view local times or setup timezone preferences in your user account.


Time Position Orientation Groundspeed Altitude Reporting Facility
EDT Latitude Longitude Course Direction KTS MPH feet Rate Location/Type
Mon 10:41:28 AM 42.2036 -83.3556 276° West 155 178 1,200  Level Cleveland Center
Mon 10:41:53 AM 42.1956 -83.3669 226° Southwest 150 173 2,100 1,957 Climbing FAA TRACON SMA TRACON (SMA)
Mon 10:42:14 AM 42.1847 -83.3814 225° Southwest 170 196 2,700 1,610 Climbing FAA TRACON SMA TRACON (SMA)
Mon 10:42:34 AM 42.1711 -83.4022 229° Southwest 204 235 3,200 1,385 Climbing FAA TRACON SMA TRACON (SMA)
Mon 10:42:53 AM 42.1578 -83.4203 225° Southwest 235 270 3,600 1,692 Climbing FAA TRACON SMA TRACON (SMA)
Mon 10:43:13 AM 42.1394 -83.4450 225° Southwest 259 298 4,300 2,700 Climbing FAA TRACON SMA TRACON (SMA)
Mon 10:43:33 AM 42.1244 -83.4647 224° Southwest 261 300 5,400 3,150 Climbing FAA TRACON SMA TRACON (SMA)
Mon 10:43:53 AM 42.1133 -83.4983 246° West 282 325 6,400 2,700 Climbing FAA TRACON SMA TRACON (SMA)
Mon 10:44:00 AM 42.2213 -83.7143 276° West  Level FlightAware Approximate
Mon 10:44:13 AM 42.1172 -83.5289 280° West 287 330 7,200  Level FAA TRACON SMA TRACON (SMA)
Mon 10:44:33 AM 42.1264 -83.5675 288° West 278 320 8,500 3,150 Climbing FAA TRACON SMA TRACON (SMA)
Mon 10:44:53 AM 42.1322 -83.5942 286° West 282 325 9,300 2,100 Climbing FAA TRACON SMA TRACON (SMA)
Mon 10:45:00 AM 42.2300 -83.8363 276° West  Level FlightAware Approximate
Mon 10:45:13 AM 42.1406 -83.6294 288° West 289 333 9,900  Level FAA TRACON SMA TRACON (SMA)
Mon 10:45:33 AM 42.1506 -83.6742 287° West 335 386 10,000 150 Climbing FAA TRACON SMA TRACON (SMA)
Mon 10:45:53 AM 42.1581 -83.7094 286° West 344 396 10,000 300 Level FAA TRACON SMA TRACON (SMA)
Mon 10:46:00 AM 42.2388 -83.9584 276° West  Level FlightAware Approximate
Mon 10:46:13 AM 42.1678 -83.7525 287° West 358 412 10,200  Level FAA TRACON SMA TRACON (SMA)
Mon 10:46:33 AM 42.1794 -83.8025 287° West 363 418 11,000 2,100 Climbing FAA TRACON SMA TRACON (SMA)
Mon 10:46:53 AM 42.1883 -83.8428 287° West 365 420 11,600 1,500 Climbing FAA TRACON SMA TRACON (SMA)
Mon 10:47:13 AM 42.1975 -83.8833 287° West 365 420 12,000 585 Climbing FAA TRACON SMA TRACON (SMA)
Mon 10:47:34 AM 42.2083 -83.9336 286° West 364 419 12,000  Level FAA TRACON SMA TRACON (SMA)
Mon 10:47:53 AM 42.2172 -83.9736 287° West 362 417 12,000  Level FAA TRACON SMA TRACON (SMA)
Mon 10:48:14 AM 42.2281 -84.0231 286° West 360 414 12,000  Level FAA TRACON SMA TRACON (SMA)
Mon 10:48:34 AM 42.2369 -84.0625 287° West 358 412 12,000  Level FAA TRACON SMA TRACON (SMA)
Mon 10:48:49 AM 42.2381 -84.0836 274° West 362 417 12,000  Level Cleveland Center
Mon 10:49:49 AM 42.2631 -84.2139 285° West 362 417 12,000 -250 Level Cleveland Center
Mon 10:50:49 AM 42.2611 -84.3431 269° West 356 410 11,500 -700 Descending Cleveland Center
Mon 10:51:49 AM 42.2589 -84.4692 269° West 346 398 10,600 -750 Descending Cleveland Center
Mon 10:52:49 AM 42.2547 -84.5894 267° West 341 392 10,000 -300 Descending Cleveland Center
Mon 10:53:49 AM 42.2567 -84.7189 271° West 341 392 10,000  Level Cleveland Center
Mon 10:54:49 AM 42.2558 -84.8506 270° West 346 398 10,000 -100 Level Cleveland Center
Mon 10:55:49 AM 42.2533 -84.9711 268° West 336 387 9,800 -1,150 Descending Cleveland Center
Mon 10:56:49 AM 42.2536 -85.0750 270° West 308 354 7,700 -1,900 Descending Cleveland Center
Mon 10:57:49 AM 42.2703 -85.1772 282° West 288 331 6,000 -850 Descending Cleveland Center
Mon 10:58:49 AM 42.2894 -85.2769 285° West 281 323 6,000  Level Cleveland Center
Mon 10:59:49 AM 42.3039 -85.3764 281° West 281 323 6,000  Level Cleveland Center
Mon 11:00:09 AM 42.3061 -85.3992 278° West 271 312 6,000 -1,463 Level Chicago Center
Mon 11:01:11 AM 42.3281 -85.4883 288° West 221 254 4,000 -1,935 Descending Chicago Center

Login

Don't have an account? Register now (free) for customized features, flight alerts, and more!